sensor_id;sensor_type;location;lat;lon;timestamp;pressure;altitude;pressure_sealevel;temperature;humidity
28628;BME280;15815;46.760;19.604;2023-12-20T00:00:05;100507.16;;;-0.80;100.00
28628;BME280;15815;46.760;19.604;2023-12-20T00:02:31;100508.78;;;-0.79;100.00
28628;BME280;15815;46.760;19.604;2023-12-20T00:04:56;100489.94;;;-0.86;100.00
28628;BME280;15815;46.760;19.604;2023-12-20T00:07:22;100483.59;;;-0.95;100.00
28628;BME280;15815;46.760;19.604;2023-12-20T00:09:47;100475.00;;;-0.94;100.00
28628;BME280;15815;46.760;19.604;2023-12-20T00:12:13;100499.66;;;-0.88;100.00
28628;BME280;15815;46.760;19.604;2023-12-20T00:14:38;100488.63;;;-0.88;100.00
28628;BME280;15815;46.760;19.604;2023-12-20T00:17:04;100469.16;;;-1.01;100.00
28628;BME280;15815;46.760;19.604;2023-12-20T00:19:29;100476.44;;;-0.87;100.00
28628;BME280;15815;46.760;19.604;2023-12-20T00:21:55;100473.22;;;-0.81;100.00
28628;BME280;15815;46.760;19.604;2023-12-20T00:24:20;100480.34;;;-0.88;100.00
28628;BME280;15815;46.760;19.604;2023-12-20T00:26:46;100472.06;;;-0.88;100.00
28628;BME280;15815;46.760;19.604;2023-12-20T00:29:13;100460.88;;;-1.01;100.00
28628;BME280;15815;46.760;19.604;2023-12-20T00:31:38;100451.16;;;-1.07;100.00
28628;BME280;15815;46.760;19.604;2023-12-20T00:34:03;100446.28;;;-1.01;100.00
28628;BME280;15815;46.760;19.604;2023-12-20T00:36:30;100435.22;;;-1.10;100.00
28628;BME280;15815;46.760;19.604;2023-12-20T00:38:56;100449.19;;;-1.06;100.00
28628;BME280;15815;46.760;19.604;2023-12-20T00:41:21;100444.31;;;-1.01;100.00
28628;BME280;15815;46.760;19.604;2023-12-20T00:43:47;100426.94;;;-1.10;100.00
28628;BME280;15815;46.760;19.604;2023-12-20T00:46:12;100415.59;;;-1.17;100.00
28628;BME280;15815;46.760;19.604;2023-12-20T00:48:38;100439.28;;;-1.07;100.00
28628;BME280;15815;46.760;19.604;2023-12-20T00:51:03;100419.63;;;-1.14;100.00
28628;BME280;15815;46.760;19.604;2023-12-20T00:53:29;100421.28;;;-1.05;100.00
28628;BME280;15815;46.760;19.604;2023-12-20T00:55:54;100411.84;;;-1.12;100.00
28628;BME280;15815;46.760;19.604;2023-12-20T00:58:21;100416.91;;;-1.06;100.00
28628;BME280;15815;46.760;19.604;2023-12-20T01:00:50;100394.50;;;-1.04;100.00
28628;BME280;15815;46.760;19.604;2023-12-20T01:03:15;100400.84;;;-1.04;100.00
28628;BME280;15815;46.760;19.604;2023-12-20T01:05:41;100402.78;;;-1.04;100.00
28628;BME280;15815;46.760;19.604;2023-12-20T01:08:06;100394.00;;;-0.98;100.00
28628;BME280;15815;46.760;19.604;2023-12-20T01:10:35;100383.63;;;-1.09;100.00
28628;BME280;15815;46.760;19.604;2023-12-20T01:13:00;100390.44;;;-0.98;100.00
28628;BME280;15815;46.760;19.604;2023-12-20T01:15:26;100374.03;;;-1.12;100.00
28628;BME280;15815;46.760;19.604;2023-12-20T01:17:51;100372.91;;;-1.11;100.00
28628;BME280;15815;46.760;19.604;2023-12-20T01:20:19;100370.16;;;-1.11;100.00
28628;BME280;15815;46.760;19.604;2023-12-20T01:22:45;100380.72;;;-1.04;100.00
28628;BME280;15815;46.760;19.604;2023-12-20T01:25:10;100366.41;;;-1.15;100.00
28628;BME280;15815;46.760;19.604;2023-12-20T01:27:36;100317.25;;;-1.39;100.00
28628;BME280;15815;46.760;19.604;2023-12-20T01:30:01;100354.59;;;-1.07;100.00
28628;BME280;15815;46.760;19.604;2023-12-20T01:32:27;100331.22;;;-1.27;100.00
28628;BME280;15815;46.760;19.604;2023-12-20T01:34:52;100342.91;;;-1.21;100.00
28628;BME280;15815;46.760;19.604;2023-12-20T01:37:18;100333.50;;;-1.29;100.00
28628;BME280;15815;46.760;19.604;2023-12-20T01:39:43;100344.53;;;-1.03;100.00
28628;BME280;15815;46.760;19.604;2023-12-20T01:42:09;100334.16;;;-1.06;100.00
28628;BME280;15815;46.760;19.604;2023-12-20T01:44:34;100340.31;;;-1.09;100.00
28628;BME280;15815;46.760;19.604;2023-12-20T01:47:00;100308.19;;;-1.22;100.00
28628;BME280;15815;46.760;19.604;2023-12-20T01:49:31;100330.88;;;-1.16;100.00
28628;BME280;15815;46.760;19.604;2023-12-20T01:51:56;100316.59;;;-1.10;100.00
28628;BME280;15815;46.760;19.604;2023-12-20T01:54:22;100323.25;;;-1.02;100.00
28628;BME280;15815;46.760;19.604;2023-12-20T01:56:49;100322.78;;;-1.04;100.00
28628;BME280;15815;46.760;19.604;2023-12-20T01:59:15;100325.22;;;-1.03;100.00
28628;BME280;15815;46.760;19.604;2023-12-20T02:01:45;100316.31;;;-1.08;100.00
28628;BME280;15815;46.760;19.604;2023-12-20T02:04:10;100296.00;;;-1.21;100.00
28628;BME280;15815;46.760;19.604;2023-12-20T02:06:38;100301.19;;;-1.19;100.00
28628;BME280;15815;46.760;19.604;2023-12-20T02:09:14;100301.69;;;-1.17;100.00
28628;BME280;15815;46.760;19.604;2023-12-20T02:11:44;100292.44;;;-1.21;100.00
28628;BME280;15815;46.760;19.604;2023-12-20T02:14:10;100303.63;;;-1.18;100.00
28628;BME280;15815;46.760;19.604;2023-12-20T02:16:37;100295.84;;;-1.16;100.00
28628;BME280;15815;46.760;19.604;2023-12-20T02:19:04;100292.13;;;-1.20;100.00
28628;BME280;15815;46.760;19.604;2023-12-20T02:21:34;100302.66;;;-1.05;100.00
28628;BME280;15815;46.760;19.604;2023-12-20T02:24:02;100290.31;;;-0.99;100.00
28628;BME280;15815;46.760;19.604;2023-12-20T02:26:28;100280.25;;;-1.12;100.00
28628;BME280;15815;46.760;19.604;2023-12-20T02:28:54;100271.50;;;-1.14;100.00
28628;BME280;15815;46.760;19.604;2023-12-20T02:31:23;100287.72;;;-1.04;100.00
28628;BME280;15815;46.760;19.604;2023-12-20T02:33:49;100279.94;;;-1.02;100.00
28628;BME280;15815;46.760;19.604;2023-12-20T02:36:14;100273.75;;;-0.99;100.00
28628;BME280;15815;46.760;19.604;2023-12-20T02:38:40;100267.09;;;-0.98;100.00
28628;BME280;15815;46.760;19.604;2023-12-20T02:41:05;100256.69;;;-0.92;100.00
28628;BME280;15815;46.760;19.604;2023-12-20T02:43:31;100261.56;;;-0.98;100.00
28628;BME280;15815;46.760;19.604;2023-12-20T02:45:56;100268.06;;;-0.94;100.00
28628;BME280;15815;46.760;19.604;2023-12-20T02:48:22;100248.44;;;-1.01;100.00
28628;BME280;15815;46.760;19.604;2023-12-20T02:50:54;100249.41;;;-0.97;100.00
28628;BME280;15815;46.760;19.604;2023-12-20T02:53:20;100265.81;;;-1.00;100.00
28628;BME280;15815;46.760;19.604;2023-12-20T02:55:45;100244.88;;;-1.10;100.00
28628;BME280;15815;46.760;19.604;2023-12-20T02:58:11;100235.66;;;-1.14;100.00
28628;BME280;15815;46.760;19.604;2023-12-20T03:00:36;100250.41;;;-1.10;100.00
28628;BME280;15815;46.760;19.604;2023-12-20T03:03:02;100245.34;;;-0.99;100.00
28628;BME280;15815;46.760;19.604;2023-12-20T03:05:27;100232.25;;;-1.19;100.00
28628;BME280;15815;46.760;19.604;2023-12-20T03:07:53;100214.25;;;-1.17;100.00
28628;BME280;15815;46.760;19.604;2023-12-20T03:10:19;100221.03;;;-1.06;100.00
28628;BME280;15815;46.760;19.604;2023-12-20T03:12:45;100208.38;;;-1.07;100.00
28628;BME280;15815;46.760;19.604;2023-12-20T03:15:10;100212.44;;;-1.13;100.00
28628;BME280;15815;46.760;19.604;2023-12-20T03:17:36;100210.97;;;-1.10;100.00
28628;BME280;15815;46.760;19.604;2023-12-20T03:20:02;100214.25;;;-1.17;100.00
28628;BME280;15815;46.760;19.604;2023-12-20T03:22:29;100187.88;;;-1.35;100.00
28628;BME280;15815;46.760;19.604;2023-12-20T03:24:54;100196.28;;;-1.40;100.00
28628;BME280;15815;46.760;19.604;2023-12-20T03:27:20;100212.00;;;-1.23;100.00
28628;BME280;15815;46.760;19.604;2023-12-20T03:29:45;100179.09;;;-1.37;100.00
28628;BME280;15815;46.760;19.604;2023-12-20T03:32:10;100199.66;;;-1.26;100.00
28628;BME280;15815;46.760;19.604;2023-12-20T03:34:36;100201.47;;;-1.30;100.00
28628;BME280;15815;46.760;19.604;2023-12-20T03:37:01;100186.53;;;-1.29;100.00
28628;BME280;15815;46.760;19.604;2023-12-20T03:39:27;100184.13;;;-1.31;100.00
28628;BME280;15815;46.760;19.604;2023-12-20T03:41:53;100172.47;;;-1.45;100.00
28628;BME280;15815;46.760;19.604;2023-12-20T03:44:18;100187.66;;;-1.21;100.00
28628;BME280;15815;46.760;19.604;2023-12-20T03:46:44;100182.63;;;-1.19;100.00
28628;BME280;15815;46.760;19.604;2023-12-20T03:49:09;100166.91;;;-1.28;100.00
28628;BME280;15815;46.760;19.604;2023-12-20T03:51:35;100156.22;;;-1.29;100.00
28628;BME280;15815;46.760;19.604;2023-12-20T03:54:00;100170.44;;;-1.18;100.00
28628;BME280;15815;46.760;19.604;2023-12-20T03:56:26;100152.78;;;-1.26;100.00
28628;BME280;15815;46.760;19.604;2023-12-20T03:58:51;100153.97;;;-1.36;100.00
28628;BME280;15815;46.760;19.604;2023-12-20T04:01:17;100165.47;;;-1.34;100.00
28628;BME280;15815;46.760;19.604;2023-12-20T04:03:43;100157.19;;;-1.34;100.00
28628;BME280;15815;46.760;19.604;2023-12-20T04:06:09;100149.88;;;-1.38;100.00
28628;BME280;15815;46.760;19.604;2023-12-20T04:08:34;100146.13;;;-1.25;100.00
28628;BME280;15815;46.760;19.604;2023-12-20T04:11:00;100140.47;;;-1.37;100.00
28628;BME280;15815;46.760;19.604;2023-12-20T04:13:25;100132.09;;;-1.49;100.00
28628;BME280;15815;46.760;19.604;2023-12-20T04:15:50;100134.84;;;-1.49;100.00
28628;BME280;15815;46.760;19.604;2023-12-20T04:18:17;100153.16;;;-1.45;100.00
28628;BME280;15815;46.760;19.604;2023-12-20T04:20:42;100155.59;;;-1.35;100.00
28628;BME280;15815;46.760;19.604;2023-12-20T04:23:08;100115.25;;;-1.57;100.00
28628;BME280;15815;46.760;19.604;2023-12-20T04:25:37;100111.38;;;-1.56;100.00
28628;BME280;15815;46.760;19.604;2023-12-20T04:28:02;100150.06;;;-1.43;100.00
28628;BME280;15815;46.760;19.604;2023-12-20T04:30:28;100142.94;;;-1.36;100.00
28628;BME280;15815;46.760;19.604;2023-12-20T04:32:54;100135.63;;;-1.40;100.00
28628;BME280;15815;46.760;19.604;2023-12-20T04:35:20;100136.75;;;-1.33;100.00
28628;BME280;15815;46.760;19.604;2023-12-20T04:37:45;100151.84;;;-1.30;100.00
28628;BME280;15815;46.760;19.604;2023-12-20T04:40:11;100144.03;;;-1.28;100.00
28628;BME280;15815;46.760;19.604;2023-12-20T04:42:36;100136.72;;;-1.24;100.00
28628;BME280;15815;46.760;19.604;2023-12-20T04:45:02;100136.56;;;-1.28;100.00
28628;BME280;15815;46.760;19.604;2023-12-20T04:47:27;100133.69;;;-1.31;100.00
28628;BME280;15815;46.760;19.604;2023-12-20T04:49:53;100141.94;;;-1.31;100.00
28628;BME280;15815;46.760;19.604;2023-12-20T04:52:18;100144.19;;;-1.25;100.00
28628;BME280;15815;46.760;19.604;2023-12-20T04:54:45;100134.91;;;-1.20;100.00
28628;BME280;15815;46.760;19.604;2023-12-20T04:57:11;100112.63;;;-1.36;100.00
28628;BME280;15815;46.760;19.604;2023-12-20T04:59:36;100113.22;;;-1.30;100.00
28628;BME280;15815;46.760;19.604;2023-12-20T05:02:02;100136.06;;;-1.21;100.00
28628;BME280;15815;46.760;19.604;2023-12-20T05:04:27;100125.22;;;-1.26;100.00
28628;BME280;15815;46.760;19.604;2023-12-20T05:06:56;100106.09;;;-1.31;100.00
28628;BME280;15815;46.760;19.604;2023-12-20T05:09:21;100136.53;;;-1.19;100.00
28628;BME280;15815;46.760;19.604;2023-12-20T05:11:48;100124.06;;;-1.25;100.00
28628;BME280;15815;46.760;19.604;2023-12-20T05:14:13;100119.41;;;-1.33;100.00
28628;BME280;15815;46.760;19.604;2023-12-20T05:16:43;100110.00;;;-1.32;100.00
28628;BME280;15815;46.760;19.604;2023-12-20T05:19:08;100132.53;;;-1.30;100.00
28628;BME280;15815;46.760;19.604;2023-12-20T05:21:34;100128.94;;;-1.22;100.00
28628;BME280;15815;46.760;19.604;2023-12-20T05:23:59;100114.53;;;-1.28;100.00
28628;BME280;15815;46.760;19.604;2023-12-20T05:26:25;100130.72;;;-1.26;100.00
28628;BME280;15815;46.760;19.604;2023-12-20T05:28:50;100126.06;;;-1.34;100.00
28628;BME280;15815;46.760;19.604;2023-12-20T05:31:17;100144.63;;;-1.14;100.00
28628;BME280;15815;46.760;19.604;2023-12-20T05:33:42;100143.34;;;-1.16;100.00
28628;BME280;15815;46.760;19.604;2023-12-20T05:36:08;100132.34;;;-1.25;100.00
28628;BME280;15815;46.760;19.604;2023-12-20T05:38:33;100144.03;;;-1.28;100.00
28628;BME280;15815;46.760;19.604;2023-12-20T05:40:59;100137.06;;;-1.26;100.00
28628;BME280;15815;46.760;19.604;2023-12-20T05:43:24;100135.09;;;-1.25;100.00
28628;BME280;15815;46.760;19.604;2023-12-20T05:45:50;100128.34;;;-1.45;100.00
28628;BME280;15815;46.760;19.604;2023-12-20T05:48:15;100159.94;;;-1.25;100.00
28628;BME280;15815;46.760;19.604;2023-12-20T05:50:41;100149.56;;;-1.28;100.00
28628;BME280;15815;46.760;19.604;2023-12-20T05:53:06;100141.75;;;-1.26;100.00
28628;BME280;15815;46.760;19.604;2023-12-20T05:55:32;100153.38;;;-1.12;100.00
28628;BME280;15815;46.760;19.604;2023-12-20T05:57:57;100140.44;;;-1.20;100.00
28628;BME280;15815;46.760;19.604;2023-12-20T06:00:23;100145.81;;;-1.23;100.00
28628;BME280;15815;46.760;19.604;2023-12-20T06:02:51;100129.88;;;-1.18;100.00
28628;BME280;15815;46.760;19.604;2023-12-20T06:05:16;100135.41;;;-1.18;100.00
28628;BME280;15815;46.760;19.604;2023-12-20T06:07:43;100151.41;;;-1.03;100.00
28628;BME280;15815;46.760;19.604;2023-12-20T06:10:08;100135.22;;;-1.13;100.00
28628;BME280;15815;46.760;19.604;2023-12-20T06:12:34;100137.00;;;-1.17;100.00
28628;BME280;15815;46.760;19.604;2023-12-20T06:14:59;100140.72;;;-1.13;100.00
28628;BME280;15815;46.760;19.604;2023-12-20T06:17:26;100142.72;;;-1.22;100.00
28628;BME280;15815;46.760;19.604;2023-12-20T06:19:51;100131.16;;;-1.15;100.00
28628;BME280;15815;46.760;19.604;2023-12-20T06:22:17;100151.88;;;-1.01;100.00
28628;BME280;15815;46.760;19.604;2023-12-20T06:24:43;100144.28;;;-1.04;100.00
28628;BME280;15815;46.760;19.604;2023-12-20T06:27:08;100115.13;;;-1.22;100.00
28628;BME280;15815;46.760;19.604;2023-12-20T06:29:34;100149.78;;;-1.04;100.00
28628;BME280;15815;46.760;19.604;2023-12-20T06:32:00;100153.84;;;-1.01;100.00
28628;BME280;15815;46.760;19.604;2023-12-20T06:34:25;100139.09;;;-1.05;100.00
28628;BME280;15815;46.760;19.604;2023-12-20T06:36:51;100150.28;;;-1.02;100.00
28628;BME280;15815;46.760;19.604;2023-12-20T06:39:16;100137.63;;;-1.03;100.00
28628;BME280;15815;46.760;19.604;2023-12-20T06:41:43;100145.22;;;-1.00;100.00
28628;BME280;15815;46.760;19.604;2023-12-20T06:44:08;100141.72;;;-1.09;100.00
28628;BME280;15815;46.760;19.604;2023-12-20T06:46:34;100126.47;;;-1.15;100.00
28628;BME280;15815;46.760;19.604;2023-12-20T06:49:00;100128.72;;;-1.08;100.00
28628;BME280;15815;46.760;19.604;2023-12-20T06:51:25;100133.81;;;-0.89;100.00
28628;BME280;15815;46.760;19.604;2023-12-20T06:53:52;100110.38;;;-1.04;100.00
28628;BME280;15815;46.760;19.604;2023-12-20T06:56:17;100109.56;;;-1.05;100.00
28628;BME280;15815;46.760;19.604;2023-12-20T06:58:43;100108.03;;;-0.94;100.00
28628;BME280;15815;46.760;19.604;2023-12-20T07:01:12;100080.31;;;-0.97;100.00
28628;BME280;15815;46.760;19.604;2023-12-20T07:03:37;100090.88;;;-0.99;100.00
28628;BME280;15815;46.760;19.604;2023-12-20T07:06:03;100083.19;;;-0.94;100.00
28628;BME280;15815;46.760;19.604;2023-12-20T07:08:29;100064.47;;;-1.09;100.00
28628;BME280;15815;46.760;19.604;2023-12-20T07:10:54;100061.22;;;-1.11;100.00
28628;BME280;15815;46.760;19.604;2023-12-20T07:13:21;100074.16;;;-1.03;100.00
28628;BME280;15815;46.760;19.604;2023-12-20T07:15:47;100087.28;;;-1.00;100.00
28628;BME280;15815;46.760;19.604;2023-12-20T07:18:12;100102.19;;;-0.92;100.00
28628;BME280;15815;46.760;19.604;2023-12-20T07:20:38;100110.22;;;-0.78;100.00
28628;BME280;15815;46.760;19.604;2023-12-20T07:23:06;100111.22;;;-0.83;100.00
28628;BME280;15815;46.760;19.604;2023-12-20T07:25:32;100115.63;;;-0.90;100.00
28628;BME280;15815;46.760;19.604;2023-12-20T07:27:58;100093.75;;;-0.96;100.00
28628;BME280;15815;46.760;19.604;2023-12-20T07:30:25;100087.78;;;-0.98;100.00
28628;BME280;15815;46.760;19.604;2023-12-20T07:32:50;100089.94;;;-1.12;100.00
28628;BME280;15815;46.760;19.604;2023-12-20T07:35:16;100079.63;;;-1.23;100.00
28628;BME280;15815;46.760;19.604;2023-12-20T07:37:42;100080.72;;;-1.16;100.00
28628;BME280;15815;46.760;19.604;2023-12-20T07:40:09;100092.19;;;-1.05;100.00
28628;BME280;15815;46.760;19.604;2023-12-20T07:42:35;100081.84;;;-1.08;100.00
28628;BME280;15815;46.760;19.604;2023-12-20T07:45:00;100097.47;;;-0.91;100.00
28628;BME280;15815;46.760;19.604;2023-12-20T07:47:26;100102.56;;;-1.02;100.00
28628;BME280;15815;46.760;19.604;2023-12-20T07:49:51;100109.75;;;-0.80;100.00
28628;BME280;15815;46.760;19.604;2023-12-20T07:52:20;100099.19;;;-0.78;100.00
28628;BME280;15815;46.760;19.604;2023-12-20T07:54:46;100122.34;;;-0.71;100.00
28628;BME280;15815;46.760;19.604;2023-12-20T07:57:12;100127.53;;;-0.69;100.00
28628;BME280;15815;46.760;19.604;2023-12-20T07:59:37;100115.44;;;-0.56;100.00
28628;BME280;15815;46.760;19.604;2023-12-20T08:02:03;100120.84;;;-0.39;100.00
28628;BME280;15815;46.760;19.604;2023-12-20T08:04:29;100108.19;;;-0.40;100.00
28628;BME280;15815;46.760;19.604;2023-12-20T08:06:57;100112.63;;;-0.47;100.00
28628;BME280;15815;46.760;19.604;2023-12-20T08:09:22;100096.72;;;-0.71;100.00
28628;BME280;15815;46.760;19.604;2023-12-20T08:11:48;100116.06;;;-0.50;100.00
28628;BME280;15815;46.760;19.604;2023-12-20T08:14:16;100099.44;;;-0.42;100.00
28628;BME280;15815;46.760;19.604;2023-12-20T08:16:42;100107.16;;;-0.35;100.00
28628;BME280;15815;46.760;19.604;2023-12-20T08:19:08;100105.28;;;-0.22;100.00
28628;BME280;15815;46.760;19.604;2023-12-20T08:21:33;100083.13;;;-0.35;100.00
28628;BME280;15815;46.760;19.604;2023-12-20T08:23:59;100089.31;;;-0.17;100.00
28628;BME280;15815;46.760;19.604;2023-12-20T08:26:26;100068.72;;;-0.19;99.96
28628;BME280;15815;46.760;19.604;2023-12-20T08:28:52;100070.09;;;-0.13;99.10
28628;BME280;15815;46.760;19.604;2023-12-20T08:31:19;100072.06;;;-0.14;98.63
28628;BME280;15815;46.760;19.604;2023-12-20T08:33:48;100072.16;;;-0.43;99.35
28628;BME280;15815;46.760;19.604;2023-12-20T08:36:15;100111.59;;;-0.01;100.00
28628;BME280;15815;46.760;19.604;2023-12-20T08:38:40;100074.69;;;-0.17;100.00
28628;BME280;15815;46.760;19.604;2023-12-20T08:41:06;100097.38;;;0.09;99.97
28628;BME280;15815;46.760;19.604;2023-12-20T08:43:32;100101.28;;;0.08;99.55
28628;BME280;15815;46.760;19.604;2023-12-20T08:45:59;100083.00;;;-0.17;100.00
28628;BME280;15815;46.760;19.604;2023-12-20T08:48:24;100107.63;;;0.09;100.00
28628;BME280;15815;46.760;19.604;2023-12-20T08:50:50;100124.78;;;0.14;100.00
28628;BME280;15815;46.760;19.604;2023-12-20T08:53:15;100126.47;;;0.27;100.00
28628;BME280;15815;46.760;19.604;2023-12-20T08:55:41;100125.31;;;0.28;99.93
28628;BME280;15815;46.760;19.604;2023-12-20T08:58:07;100115.78;;;0.38;99.48
28628;BME280;15815;46.760;19.604;2023-12-20T09:00:33;100097.94;;;0.36;99.77
28628;BME280;15815;46.760;19.604;2023-12-20T09:02:58;100093.69;;;0.05;100.00
28628;BME280;15815;46.760;19.604;2023-12-20T09:05:27;100126.72;;;0.35;100.00
28628;BME280;15815;46.760;19.604;2023-12-20T09:07:52;100125.78;;;0.30;100.00
28628;BME280;15815;46.760;19.604;2023-12-20T09:10:18;100108.81;;;0.20;100.00
28628;BME280;15815;46.760;19.604;2023-12-20T09:12:43;100102.59;;;0.23;100.00
28628;BME280;15815;46.760;19.604;2023-12-20T09:15:09;100116.88;;;0.25;100.00
28628;BME280;15815;46.760;19.604;2023-12-20T09:17:34;100116.47;;;0.35;100.00
28628;BME280;15815;46.760;19.604;2023-12-20T09:20:05;100111.31;;;0.46;100.00
28628;BME280;15815;46.760;19.604;2023-12-20T09:22:31;100102.66;;;0.47;100.00
28628;BME280;15815;46.760;19.604;2023-12-20T09:24:56;100058.75;;;0.34;100.00
28628;BME280;15815;46.760;19.604;2023-12-20T09:27:22;100065.44;;;0.45;100.00
28628;BME280;15815;46.760;19.604;2023-12-20T09:29:48;100055.06;;;0.42;100.00
28628;BME280;15815;46.760;19.604;2023-12-20T09:32:14;100074.72;;;0.61;100.00
28628;BME280;15815;46.760;19.604;2023-12-20T09:34:40;100076.22;;;0.71;100.00
28628;BME280;15815;46.760;19.604;2023-12-20T09:37:05;100083.59;;;0.91;100.00
28628;BME280;15815;46.760;19.604;2023-12-20T09:39:30;100071.38;;;0.92;100.00
28628;BME280;15815;46.760;19.604;2023-12-20T09:42:05;100069.06;;;1.06;100.00
28628;BME280;15815;46.760;19.604;2023-12-20T09:44:32;100054.91;;;0.96;99.39
28628;BME280;15815;46.760;19.604;2023-12-20T09:46:58;100041.63;;;1.01;100.00
28628;BME280;15815;46.760;19.604;2023-12-20T09:49:25;100037.25;;;1.00;99.67
28628;BME280;15815;46.760;19.604;2023-12-20T09:51:56;100043.13;;;1.11;99.92
28628;BME280;15815;46.760;19.604;2023-12-20T09:54:25;100037.91;;;1.21;100.00
28628;BME280;15815;46.760;19.604;2023-12-20T09:56:52;100037.31;;;1.28;99.86
28628;BME280;15815;46.760;19.604;2023-12-20T09:59:20;100048.03;;;1.30;99.71
28628;BME280;15815;46.760;19.604;2023-12-20T10:01:45;100043.31;;;1.30;99.20
28628;BME280;15815;46.760;19.604;2023-12-20T10:04:13;100055.75;;;1.36;99.83
28628;BME280;15815;46.760;19.604;2023-12-20T10:06:42;100056.25;;;1.38;99.68
28628;BME280;15815;46.760;19.604;2023-12-20T10:09:08;100054.28;;;1.39;99.55
28628;BME280;15815;46.760;19.604;2023-12-20T10:11:38;100026.03;;;1.21;98.97
28628;BME280;15815;46.760;19.604;2023-12-20T10:14:07;100051.72;;;1.46;98.92
28628;BME280;15815;46.760;19.604;2023-12-20T10:16:33;100052.41;;;1.43;99.36
28628;BME280;15815;46.760;19.604;2023-12-20T10:19:00;100046.63;;;1.48;99.66
28628;BME280;15815;46.760;19.604;2023-12-20T10:21:25;100044.31;;;1.50;98.74
28628;BME280;15815;46.760;19.604;2023-12-20T10:23:51;100013.19;;;1.41;99.42
28628;BME280;15815;46.760;19.604;2023-12-20T10:26:24;100044.53;;;1.57;98.90
28628;BME280;15815;46.760;19.604;2023-12-20T10:28:52;100034.19;;;1.42;98.14
28628;BME280;15815;46.760;19.604;2023-12-20T10:31:30;100040.19;;;1.44;99.36
28628;BME280;15815;46.760;19.604;2023-12-20T10:34:00;100024.97;;;1.38;98.69
28628;BME280;15815;46.760;19.604;2023-12-20T10:36:34;100043.19;;;1.39;98.56
28628;BME280;15815;46.760;19.604;2023-12-20T10:39:00;100039.13;;;1.48;99.02
28628;BME280;15815;46.760;19.604;2023-12-20T10:41:30;100037.56;;;1.63;98.45
28628;BME280;15815;46.760;19.604;2023-12-20T10:43:59;100031.22;;;1.63;98.60
28628;BME280;15815;46.760;19.604;2023-12-20T10:46:29;100019.47;;;1.66;98.54
28628;BME280;15815;46.760;19.604;2023-12-20T10:48:58;100019.47;;;1.66;98.20
28628;BME280;15815;46.760;19.604;2023-12-20T10:51:27;99996.00;;;1.63;98.22
28628;BME280;15815;46.760;19.604;2023-12-20T10:53:54;100008.13;;;1.71;98.20
28628;BME280;15815;46.760;19.604;2023-12-20T10:56:21;100010.75;;;1.79;98.63
28628;BME280;15815;46.760;19.604;2023-12-20T10:58:48;99999.31;;;1.81;98.05
28628;BME280;15815;46.760;19.604;2023-12-20T11:01:14;100011.50;;;1.92;96.86
28628;BME280;15815;46.760;19.604;2023-12-20T11:03:52;100027.75;;;2.22;97.43
28628;BME280;15815;46.760;19.604;2023-12-20T11:11:42;100007.34;;;2.30;97.76
28628;BME280;15815;46.760;19.604;2023-12-20T11:14:20;99997.78;;;2.27;97.13
28628;BME280;15815;46.760;19.604;2023-12-20T11:16:47;100007.53;;;2.21;96.36
28628;BME280;15815;46.760;19.604;2023-12-20T11:19:16;100003.88;;;2.33;97.62
28628;BME280;15815;46.760;19.604;2023-12-20T11:21:42;99983.75;;;2.52;96.50
28628;BME280;15815;46.760;19.604;2023-12-20T11:24:07;99980.25;;;2.55;96.83
28628;BME280;15815;46.760;19.604;2023-12-20T11:26:34;100003.06;;;2.64;97.56
28628;BME280;15815;46.760;19.604;2023-12-20T11:29:34;100006.13;;;2.59;96.28
28628;BME280;15815;46.760;19.604;2023-12-20T11:32:04;99999.94;;;2.65;96.77
28628;BME280;15815;46.760;19.604;2023-12-20T11:34:51;99968.97;;;2.63;97.52
28628;BME280;15815;46.760;19.604;2023-12-20T11:37:19;99992.69;;;2.76;96.59
28628;BME280;15815;46.760;19.604;2023-12-20T11:40:00;99980.94;;;2.83;96.47
28628;BME280;15815;46.760;19.604;2023-12-20T11:42:25;99976.63;;;2.86;96.74
28628;BME280;15815;46.760;19.604;2023-12-20T11:44:53;99978.63;;;2.69;95.85
28628;BME280;15815;46.760;19.604;2023-12-20T11:47:21;99980.94;;;2.67;96.94
28628;BME280;15815;46.760;19.604;2023-12-20T11:49:48;99980.94;;;2.67;96.27
28628;BME280;15815;46.760;19.604;2023-12-20T11:52:16;99980.41;;;2.77;96.13
28628;BME280;15815;46.760;19.604;2023-12-20T11:54:42;99978.97;;;2.84;96.88
28628;BME280;15815;46.760;19.604;2023-12-20T11:57:07;99979.06;;;2.71;96.79
28628;BME280;15815;46.760;19.604;2023-12-20T11:59:33;99968.16;;;2.63;96.92
28628;BME280;15815;46.760;19.604;2023-12-20T12:01:58;99981.59;;;2.61;96.54
28628;BME280;15815;46.760;19.604;2023-12-20T12:04:24;99972.44;;;2.76;97.22
28628;BME280;15815;46.760;19.604;2023-12-20T12:06:50;99966.56;;;2.97;97.64
28628;BME280;15815;46.760;19.604;2023-12-20T12:09:15;99963.97;;;3.04;96.69
28628;BME280;15815;46.760;19.604;2023-12-20T12:11:42;99963.63;;;3.05;96.37
28628;BME280;15815;46.760;19.604;2023-12-20T12:14:07;99943.66;;;3.19;95.89
28628;BME280;15815;46.760;19.604;2023-12-20T12:16:33;99936.13;;;3.20;95.00
28628;BME280;15815;46.760;19.604;2023-12-20T12:18:59;99930.25;;;3.40;94.88
28628;BME280;15815;46.760;19.604;2023-12-20T12:21:25;99939.28;;;3.76;96.46
28628;BME280;15815;46.760;19.604;2023-12-20T12:23:50;99931.16;;;3.87;95.76
28628;BME280;15815;46.760;19.604;2023-12-20T12:26:16;99940.94;;;4.23;94.74
28628;BME280;15815;46.760;19.604;2023-12-20T12:28:42;99934.78;;;4.59;94.51
28628;BME280;15815;46.760;19.604;2023-12-20T12:31:13;99936.06;;;4.92;92.81
28628;BME280;15815;46.760;19.604;2023-12-20T12:33:40;99938.66;;;5.34;91.49
28628;BME280;15815;46.760;19.604;2023-12-20T12:36:07;99931.22;;;5.45;93.49